sensor_id;sensor_type;location;lat;lon;timestamp;P1;durP1;ratioP1;P2;durP2;ratioP2
35380;SDS011;21486;51.916;8.378;2023-07-20T00:01:28;11.20;;;8.37;;
35380;SDS011;21486;51.916;8.378;2023-07-20T00:03:54;11.83;;;8.97;;
35380;SDS011;21486;51.916;8.378;2023-07-20T00:06:29;14.02;;;8.45;;
35380;SDS011;21486;51.916;8.378;2023-07-20T00:08:55;11.02;;;7.40;;
35380;SDS011;21486;51.916;8.378;2023-07-20T00:11:21;11.07;;;7.88;;
35380;SDS011;21486;51.916;8.378;2023-07-20T00:13:50;13.57;;;7.88;;
35380;SDS011;21486;51.916;8.378;2023-07-20T00:16:16;12.87;;;8.37;;
35380;SDS011;21486;51.916;8.378;2023-07-20T00:18:41;15.17;;;8.53;;
35380;SDS011;21486;51.916;8.378;2023-07-20T00:21:07;15.00;;;8.02;;
35380;SDS011;21486;51.916;8.378;2023-07-20T00:23:32;12.27;;;7.77;;
35380;SDS011;21486;51.916;8.378;2023-07-20T00:25:58;12.40;;;8.23;;
35380;SDS011;21486;51.916;8.378;2023-07-20T00:28:23;14.30;;;8.70;;
35380;SDS011;21486;51.916;8.378;2023-07-20T00:33:01;12.80;;;8.82;;
35380;SDS011;21486;51.916;8.378;2023-07-20T00:35:27;13.25;;;9.20;;
35380;SDS011;21486;51.916;8.378;2023-07-20T00:37:52;15.10;;;9.40;;
35380;SDS011;21486;51.916;8.378;2023-07-20T00:40:18;16.80;;;9.57;;
35380;SDS011;21486;51.916;8.378;2023-07-20T00:42:44;12.88;;;9.27;;
35380;SDS011;21486;51.916;8.378;2023-07-20T00:45:09;15.13;;;9.70;;
35380;SDS011;21486;51.916;8.378;2023-07-20T00:47:35;15.57;;;8.80;;
35380;SDS011;21486;51.916;8.378;2023-07-20T00:50:02;17.33;;;10.10;;
35380;SDS011;21486;51.916;8.378;2023-07-20T00:52:29;16.98;;;9.45;;
35380;SDS011;21486;51.916;8.378;2023-07-20T00:54:55;16.90;;;9.57;;
35380;SDS011;21486;51.916;8.378;2023-07-20T00:57:21;16.73;;;9.20;;
35380;SDS011;21486;51.916;8.378;2023-07-20T00:59:49;13.15;;;9.43;;
35380;SDS011;21486;51.916;8.378;2023-07-20T01:02:14;16.80;;;10.03;;
35380;SDS011;21486;51.916;8.378;2023-07-20T01:04:40;19.60;;;9.45;;
35380;SDS011;21486;51.916;8.378;2023-07-20T01:09:52;18.70;;;10.57;;
35380;SDS011;21486;51.916;8.378;2023-07-20T01:12:27;18.63;;;10.98;;
35380;SDS011;21486;51.916;8.378;2023-07-20T01:15:11;15.87;;;10.50;;
35380;SDS011;21486;51.916;8.378;2023-07-20T01:17:37;20.10;;;11.30;;
35380;SDS011;21486;51.916;8.378;2023-07-20T01:20:03;16.17;;;11.00;;
35380;SDS011;21486;51.916;8.378;2023-07-20T01:22:42;16.70;;;10.45;;
35380;SDS011;21486;51.916;8.378;2023-07-20T01:25:29;18.23;;;10.65;;
35380;SDS011;21486;51.916;8.378;2023-07-20T01:30:50;20.40;;;11.23;;
35380;SDS011;21486;51.916;8.378;2023-07-20T01:33:20;21.83;;;12.67;;
35380;SDS011;21486;51.916;8.378;2023-07-20T01:35:52;20.13;;;12.52;;
35380;SDS011;21486;51.916;8.378;2023-07-20T01:38:20;19.60;;;12.82;;
35380;SDS011;21486;51.916;8.378;2023-07-20T01:40:47;22.33;;;13.07;;
35380;SDS011;21486;51.916;8.378;2023-07-20T01:43:13;27.50;;;15.30;;
35380;SDS011;21486;51.916;8.378;2023-07-20T01:45:38;33.80;;;18.98;;
35380;SDS011;21486;51.916;8.378;2023-07-20T01:48:04;34.25;;;19.52;;
35380;SDS011;21486;51.916;8.378;2023-07-20T01:50:30;41.22;;;22.83;;
35380;SDS011;21486;51.916;8.378;2023-07-20T01:52:56;45.70;;;22.53;;
35380;SDS011;21486;51.916;8.378;2023-07-20T01:55:22;48.78;;;24.75;;
35380;SDS011;21486;51.916;8.378;2023-07-20T01:57:47;44.03;;;24.20;;
35380;SDS011;21486;51.916;8.378;2023-07-20T02:00:13;44.35;;;23.83;;
35380;SDS011;21486;51.916;8.378;2023-07-20T02:02:39;46.30;;;24.83;;
35380;SDS011;21486;51.916;8.378;2023-07-20T02:05:05;49.20;;;26.13;;
35380;SDS011;21486;51.916;8.378;2023-07-20T02:07:30;50.83;;;25.33;;
35380;SDS011;21486;51.916;8.378;2023-07-20T02:09:56;52.43;;;27.20;;
35380;SDS011;21486;51.916;8.378;2023-07-20T02:12:21;56.42;;;27.98;;
35380;SDS011;21486;51.916;8.378;2023-07-20T02:14:47;53.43;;;27.73;;
35380;SDS011;21486;51.916;8.378;2023-07-20T02:17:13;64.80;;;28.25;;
35380;SDS011;21486;51.916;8.378;2023-07-20T02:19:40;57.45;;;27.42;;
35380;SDS011;21486;51.916;8.378;2023-07-20T02:22:05;55.78;;;26.58;;
35380;SDS011;21486;51.916;8.378;2023-07-20T02:24:32;47.47;;;24.45;;
35380;SDS011;21486;51.916;8.378;2023-07-20T02:26:58;45.13;;;22.90;;
35380;SDS011;21486;51.916;8.378;2023-07-20T02:29:24;42.63;;;22.20;;
35380;SDS011;21486;51.916;8.378;2023-07-20T02:31:50;41.70;;;20.45;;
35380;SDS011;21486;51.916;8.378;2023-07-20T02:34:15;43.93;;;21.17;;
35380;SDS011;21486;51.916;8.378;2023-07-20T02:36:41;35.70;;;20.90;;
35380;SDS011;21486;51.916;8.378;2023-07-20T02:39:07;40.20;;;19.35;;
35380;SDS011;21486;51.916;8.378;2023-07-20T02:41:33;33.95;;;19.77;;
35380;SDS011;21486;51.916;8.378;2023-07-20T02:43:59;38.23;;;18.93;;
35380;SDS011;21486;51.916;8.378;2023-07-20T02:46:26;35.67;;;18.30;;
35380;SDS011;21486;51.916;8.378;2023-07-20T02:48:52;34.35;;;17.35;;
35380;SDS011;21486;51.916;8.378;2023-07-20T02:51:17;33.50;;;17.50;;
35380;SDS011;21486;51.916;8.378;2023-07-20T02:53:43;33.60;;;18.83;;
35380;SDS011;21486;51.916;8.378;2023-07-20T02:56:08;36.42;;;18.92;;
35380;SDS011;21486;51.916;8.378;2023-07-20T02:58:34;41.20;;;18.37;;
35380;SDS011;21486;51.916;8.378;2023-07-20T03:01:03;37.28;;;18.17;;
35380;SDS011;21486;51.916;8.378;2023-07-20T03:03:29;31.27;;;18.13;;
35380;SDS011;21486;51.916;8.378;2023-07-20T03:05:54;30.30;;;18.03;;
35380;SDS011;21486;51.916;8.378;2023-07-20T03:08:22;29.95;;;17.00;;
35380;SDS011;21486;51.916;8.378;2023-07-20T03:10:48;37.03;;;17.13;;
35380;SDS011;21486;51.916;8.378;2023-07-20T03:13:14;31.55;;;17.48;;
35380;SDS011;21486;51.916;8.378;2023-07-20T03:15:41;29.02;;;16.10;;
35380;SDS011;21486;51.916;8.378;2023-07-20T03:18:06;35.05;;;17.15;;
35380;SDS011;21486;51.916;8.378;2023-07-20T03:20:32;29.83;;;17.13;;
35380;SDS011;21486;51.916;8.378;2023-07-20T03:22:57;27.07;;;16.83;;
35380;SDS011;21486;51.916;8.378;2023-07-20T03:25:23;31.02;;;17.58;;
35380;SDS011;21486;51.916;8.378;2023-07-20T03:27:48;29.33;;;16.70;;
35380;SDS011;21486;51.916;8.378;2023-07-20T03:30:14;28.10;;;17.30;;
35380;SDS011;21486;51.916;8.378;2023-07-20T03:32:40;29.45;;;15.73;;
35380;SDS011;21486;51.916;8.378;2023-07-20T03:35:05;28.20;;;15.13;;
35380;SDS011;21486;51.916;8.378;2023-07-20T03:37:31;27.83;;;15.95;;
35380;SDS011;21486;51.916;8.378;2023-07-20T03:39:59;32.05;;;16.50;;
35380;SDS011;21486;51.916;8.378;2023-07-20T03:42:25;28.07;;;15.77;;
35380;SDS011;21486;51.916;8.378;2023-07-20T03:44:50;22.85;;;15.48;;
35380;SDS011;21486;51.916;8.378;2023-07-20T03:47:16;27.27;;;15.40;;
35380;SDS011;21486;51.916;8.378;2023-07-20T03:49:42;27.37;;;15.33;;
35380;SDS011;21486;51.916;8.378;2023-07-20T03:52:07;24.90;;;15.33;;
35380;SDS011;21486;51.916;8.378;2023-07-20T03:54:33;26.98;;;16.60;;
35380;SDS011;21486;51.916;8.378;2023-07-20T03:56:59;26.17;;;15.68;;
35380;SDS011;21486;51.916;8.378;2023-07-20T03:59:25;28.05;;;16.20;;
35380;SDS011;21486;51.916;8.378;2023-07-20T04:01:51;23.73;;;15.90;;
35380;SDS011;21486;51.916;8.378;2023-07-20T04:04:17;31.25;;;16.27;;
35380;SDS011;21486;51.916;8.378;2023-07-20T04:06:42;26.70;;;16.00;;
35380;SDS011;21486;51.916;8.378;2023-07-20T04:09:11;32.72;;;15.70;;
35380;SDS011;21486;51.916;8.378;2023-07-20T04:11:37;27.92;;;15.50;;
35380;SDS011;21486;51.916;8.378;2023-07-20T04:14:03;24.20;;;15.27;;
35380;SDS011;21486;51.916;8.378;2023-07-20T04:16:29;25.03;;;14.20;;
35380;SDS011;21486;51.916;8.378;2023-07-20T04:18:55;21.73;;;14.40;;
35380;SDS011;21486;51.916;8.378;2023-07-20T04:21:21;20.98;;;13.50;;
35380;SDS011;21486;51.916;8.378;2023-07-20T04:23:47;21.55;;;12.93;;
35380;SDS011;21486;51.916;8.378;2023-07-20T04:26:13;17.00;;;11.90;;
35380;SDS011;21486;51.916;8.378;2023-07-20T04:28:40;15.10;;;10.52;;
35380;SDS011;21486;51.916;8.378;2023-07-20T04:31:13;15.35;;;9.60;;
35380;SDS011;21486;51.916;8.378;2023-07-20T04:33:40;20.52;;;9.93;;
35380;SDS011;21486;51.916;8.378;2023-07-20T04:36:06;10.07;;;7.38;;
35380;SDS011;21486;51.916;8.378;2023-07-20T04:38:32;10.55;;;6.55;;
35380;SDS011;21486;51.916;8.378;2023-07-20T04:40:58;11.23;;;6.60;;
35380;SDS011;21486;51.916;8.378;2023-07-20T04:43:24;12.50;;;6.70;;
35380;SDS011;21486;51.916;8.378;2023-07-20T04:45:49;11.27;;;6.37;;
35380;SDS011;21486;51.916;8.378;2023-07-20T04:48:16;8.80;;;5.85;;
35380;SDS011;21486;51.916;8.378;2023-07-20T04:50:42;8.52;;;5.90;;
35380;SDS011;21486;51.916;8.378;2023-07-20T04:53:10;15.18;;;6.50;;
35380;SDS011;21486;51.916;8.378;2023-07-20T04:55:36;7.28;;;5.72;;
35380;SDS011;21486;51.916;8.378;2023-07-20T04:58:03;9.90;;;6.03;;
35380;SDS011;21486;51.916;8.378;2023-07-20T05:00:29;9.60;;;6.17;;
35380;SDS011;21486;51.916;8.378;2023-07-20T05:02:57;9.40;;;6.13;;
35380;SDS011;21486;51.916;8.378;2023-07-20T05:05:22;8.23;;;5.25;;
35380;SDS011;21486;51.916;8.378;2023-07-20T05:07:48;8.35;;;5.88;;
35380;SDS011;21486;51.916;8.378;2023-07-20T05:10:13;11.20;;;5.90;;
35380;SDS011;21486;51.916;8.378;2023-07-20T05:12:39;10.60;;;6.28;;
35380;SDS011;21486;51.916;8.378;2023-07-20T05:15:05;8.65;;;6.70;;
35380;SDS011;21486;51.916;8.378;2023-07-20T05:17:31;8.05;;;6.68;;
35380;SDS011;21486;51.916;8.378;2023-07-20T05:19:56;9.20;;;5.70;;
35380;SDS011;21486;51.916;8.378;2023-07-20T05:22:22;12.13;;;5.63;;
35380;SDS011;21486;51.916;8.378;2023-07-20T05:24:49;7.00;;;5.50;;
35380;SDS011;21486;51.916;8.378;2023-07-20T05:27:15;9.50;;;5.97;;
35380;SDS011;21486;51.916;8.378;2023-07-20T05:29:44;10.70;;;6.00;;
35380;SDS011;21486;51.916;8.378;2023-07-20T05:32:10;7.80;;;5.75;;
35380;SDS011;21486;51.916;8.378;2023-07-20T05:34:35;7.00;;;5.37;;
35380;SDS011;21486;51.916;8.378;2023-07-20T05:37:01;9.00;;;5.10;;
35380;SDS011;21486;51.916;8.378;2023-07-20T05:39:27;8.27;;;5.28;;
35380;SDS011;21486;51.916;8.378;2023-07-20T05:41:52;12.83;;;5.50;;
35380;SDS011;21486;51.916;8.378;2023-07-20T05:44:18;9.20;;;5.17;;
35380;SDS011;21486;51.916;8.378;2023-07-20T05:46:43;6.38;;;5.47;;
35380;SDS011;21486;51.916;8.378;2023-07-20T05:49:09;6.70;;;4.40;;
35380;SDS011;21486;51.916;8.378;2023-07-20T05:51:35;5.77;;;4.30;;
35380;SDS011;21486;51.916;8.378;2023-07-20T05:54:01;5.97;;;4.93;;
35380;SDS011;21486;51.916;8.378;2023-07-20T05:56:27;5.40;;;4.20;;
35380;SDS011;21486;51.916;8.378;2023-07-20T05:58:52;5.45;;;4.00;;
35380;SDS011;21486;51.916;8.378;2023-07-20T06:01:18;6.23;;;3.57;;
35380;SDS011;21486;51.916;8.378;2023-07-20T06:03:44;6.78;;;4.15;;
35380;SDS011;21486;51.916;8.378;2023-07-20T06:06:09;4.33;;;3.93;;
35380;SDS011;21486;51.916;8.378;2023-07-20T06:08:37;5.70;;;4.00;;
35380;SDS011;21486;51.916;8.378;2023-07-20T06:11:02;4.38;;;3.50;;
35380;SDS011;21486;51.916;8.378;2023-07-20T06:13:28;5.50;;;3.40;;
35380;SDS011;21486;51.916;8.378;2023-07-20T06:15:54;6.80;;;3.30;;
35380;SDS011;21486;51.916;8.378;2023-07-20T06:18:20;5.33;;;2.67;;
35380;SDS011;21486;51.916;8.378;2023-07-20T06:20:50;3.83;;;2.35;;
35380;SDS011;21486;51.916;8.378;2023-07-20T06:23:17;5.00;;;2.90;;
35380;SDS011;21486;51.916;8.378;2023-07-20T06:25:45;9.77;;;2.40;;
35380;SDS011;21486;51.916;8.378;2023-07-20T06:28:11;8.40;;;2.10;;
35380;SDS011;21486;51.916;8.378;2023-07-20T06:30:37;3.00;;;2.28;;
35380;SDS011;21486;51.916;8.378;2023-07-20T06:33:03;3.67;;;2.53;;
35380;SDS011;21486;51.916;8.378;2023-07-20T06:35:29;4.10;;;1.90;;
35380;SDS011;21486;51.916;8.378;2023-07-20T06:37:54;4.10;;;2.40;;
35380;SDS011;21486;51.916;8.378;2023-07-20T06:40:24;3.00;;;1.92;;
35380;SDS011;21486;51.916;8.378;2023-07-20T06:42:49;2.97;;;1.70;;
35380;SDS011;21486;51.916;8.378;2023-07-20T06:45:15;3.05;;;1.92;;
35380;SDS011;21486;51.916;8.378;2023-07-20T06:47:41;2.83;;;2.10;;
35380;SDS011;21486;51.916;8.378;2023-07-20T06:50:07;2.63;;;1.90;;
35380;SDS011;21486;51.916;8.378;2023-07-20T06:52:33;3.90;;;2.10;;
35380;SDS011;21486;51.916;8.378;2023-07-20T06:54:59;3.10;;;2.23;;
35380;SDS011;21486;51.916;8.378;2023-07-20T06:57:25;4.70;;;1.80;;
35380;SDS011;21486;51.916;8.378;2023-07-20T06:59:50;2.33;;;1.40;;
35380;SDS011;21486;51.916;8.378;2023-07-20T07:02:16;3.80;;;1.40;;
35380;SDS011;21486;51.916;8.378;2023-07-20T07:04:43;2.85;;;1.38;;
35380;SDS011;21486;51.916;8.378;2023-07-20T07:07:08;2.87;;;1.33;;
35380;SDS011;21486;51.916;8.378;2023-07-20T07:09:35;4.80;;;1.17;;
35380;SDS011;21486;51.916;8.378;2023-07-20T07:12:00;2.03;;;1.17;;
35380;SDS011;21486;51.916;8.378;2023-07-20T07:14:26;2.77;;;1.10;;
35380;SDS011;21486;51.916;8.378;2023-07-20T07:16:52;2.40;;;1.38;;
35380;SDS011;21486;51.916;8.378;2023-07-20T07:19:17;3.30;;;1.30;;
35380;SDS011;21486;51.916;8.378;2023-07-20T07:21:43;2.92;;;1.13;;
35380;SDS011;21486;51.916;8.378;2023-07-20T07:24:09;3.03;;;1.37;;
35380;SDS011;21486;51.916;8.378;2023-07-20T07:26:35;5.15;;;1.80;;
35380;SDS011;21486;51.916;8.378;2023-07-20T07:29:01;5.65;;;1.80;;
35380;SDS011;21486;51.916;8.378;2023-07-20T07:31:28;2.97;;;1.33;;
35380;SDS011;21486;51.916;8.378;2023-07-20T07:33:55;3.30;;;1.70;;
35380;SDS011;21486;51.916;8.378;2023-07-20T07:36:21;2.93;;;1.60;;
35380;SDS011;21486;51.916;8.378;2023-07-20T07:38:46;5.20;;;1.70;;
35380;SDS011;21486;51.916;8.378;2023-07-20T07:41:12;3.60;;;1.50;;
35380;SDS011;21486;51.916;8.378;2023-07-20T07:43:38;3.70;;;1.60;;
35380;SDS011;21486;51.916;8.378;2023-07-20T07:46:04;2.60;;;1.70;;
35380;SDS011;21486;51.916;8.378;2023-07-20T07:48:30;3.93;;;1.63;;
35380;SDS011;21486;51.916;8.378;2023-07-20T07:50:55;3.20;;;1.33;;
35380;SDS011;21486;51.916;8.378;2023-07-20T07:53:21;4.00;;;1.60;;
35380;SDS011;21486;51.916;8.378;2023-07-20T07:55:49;3.70;;;1.50;;
35380;SDS011;21486;51.916;8.378;2023-07-20T07:58:15;3.78;;;1.48;;
35380;SDS011;21486;51.916;8.378;2023-07-20T08:00:41;7.68;;;1.50;;
35380;SDS011;21486;51.916;8.378;2023-07-20T08:03:08;4.97;;;1.30;;
35380;SDS011;21486;51.916;8.378;2023-07-20T08:05:34;2.57;;;1.00;;
35380;SDS011;21486;51.916;8.378;2023-07-20T08:08:03;2.28;;;0.88;;
35380;SDS011;21486;51.916;8.378;2023-07-20T08:10:31;3.20;;;1.00;;
35380;SDS011;21486;51.916;8.378;2023-07-20T08:12:57;3.25;;;1.08;;
35380;SDS011;21486;51.916;8.378;2023-07-20T08:15:22;3.93;;;1.00;;
35380;SDS011;21486;51.916;8.378;2023-07-20T08:17:48;1.50;;;1.00;;
35380;SDS011;21486;51.916;8.378;2023-07-20T08:20:16;2.63;;;0.60;;
35380;SDS011;21486;51.916;8.378;2023-07-20T08:22:42;2.05;;;0.90;;
35380;SDS011;21486;51.916;8.378;2023-07-20T08:25:08;1.30;;;0.70;;
35380;SDS011;21486;51.916;8.378;2023-07-20T08:27:34;2.25;;;0.90;;
35380;SDS011;21486;51.916;8.378;2023-07-20T08:30:02;4.20;;;1.00;;
35380;SDS011;21486;51.916;8.378;2023-07-20T08:32:29;2.13;;;0.75;;
35380;SDS011;21486;51.916;8.378;2023-07-20T08:34:55;2.17;;;0.73;;
35380;SDS011;21486;51.916;8.378;2023-07-20T08:37:20;1.10;;;0.70;;
35380;SDS011;21486;51.916;8.378;2023-07-20T08:39:46;3.85;;;0.80;;
35380;SDS011;21486;51.916;8.378;2023-07-20T08:42:11;1.90;;;0.70;;
35380;SDS011;21486;51.916;8.378;2023-07-20T08:44:39;3.95;;;0.70;;
35380;SDS011;21486;51.916;8.378;2023-07-20T08:47:07;2.63;;;0.82;;
35380;SDS011;21486;51.916;8.378;2023-07-20T08:49:34;1.58;;;0.60;;
35380;SDS011;21486;51.916;8.378;2023-07-20T08:52:00;0.50;;;0.30;;
35380;SDS011;21486;51.916;8.378;2023-07-20T08:54:27;3.53;;;0.70;;
35380;SDS011;21486;51.916;8.378;2023-07-20T08:56:57;1.10;;;0.40;;
35380;SDS011;21486;51.916;8.378;2023-07-20T08:59:26;2.20;;;0.60;;
35380;SDS011;21486;51.916;8.378;2023-07-20T09:01:54;1.08;;;0.43;;
35380;SDS011;21486;51.916;8.378;2023-07-20T09:04:23;1.80;;;0.70;;
35380;SDS011;21486;51.916;8.378;2023-07-20T09:06:49;3.95;;;0.77;;
35380;SDS011;21486;51.916;8.378;2023-07-20T09:09:15;2.30;;;0.70;;
35380;SDS011;21486;51.916;8.378;2023-07-20T09:11:41;1.63;;;0.50;;
35380;SDS011;21486;51.916;8.378;2023-07-20T09:14:07;0.80;;;0.50;;
35380;SDS011;21486;51.916;8.378;2023-07-20T09:16:49;1.95;;;0.70;;
35380;SDS011;21486;51.916;8.378;2023-07-20T09:19:17;2.95;;;1.10;;
35380;SDS011;21486;51.916;8.378;2023-07-20T09:21:44;1.95;;;0.60;;
35380;SDS011;21486;51.916;8.378;2023-07-20T09:24:11;4.63;;;1.00;;
35380;SDS011;21486;51.916;8.378;2023-07-20T09:26:40;2.33;;;0.50;;
35380;SDS011;21486;51.916;8.378;2023-07-20T09:29:08;1.20;;;0.60;;
35380;SDS011;21486;51.916;8.378;2023-07-20T09:31:36;1.88;;;0.50;;
35380;SDS011;21486;51.916;8.378;2023-07-20T09:34:04;1.55;;;0.52;;
35380;SDS011;21486;51.916;8.378;2023-07-20T09:36:33;1.90;;;0.60;;
35380;SDS011;21486;51.916;8.378;2023-07-20T09:39:00;4.33;;;1.40;;
35380;SDS011;21486;51.916;8.378;2023-07-20T09:41:26;2.75;;;0.55;;
35380;SDS011;21486;51.916;8.378;2023-07-20T09:43:51;2.00;;;0.60;;
35380;SDS011;21486;51.916;8.378;2023-07-20T09:46:18;1.25;;;0.40;;
35380;SDS011;21486;51.916;8.378;2023-07-20T09:48:51;2.35;;;0.70;;
35380;SDS011;21486;51.916;8.378;2023-07-20T09:51:19;5.07;;;0.60;;
35380;SDS011;21486;51.916;8.378;2023-07-20T09:53:49;3.85;;;0.80;;
35380;SDS011;21486;51.916;8.378;2023-07-20T09:56:17;3.70;;;0.70;;
35380;SDS011;21486;51.916;8.378;2023-07-20T09:58:47;3.03;;;0.85;;
35380;SDS011;21486;51.916;8.378;2023-07-20T10:01:13;1.73;;;0.85;;
35380;SDS011;21486;51.916;8.378;2023-07-20T10:03:44;1.25;;;0.60;;
